sensor_id;sensor_type;location;lat;lon;timestamp;pressure;altitude;pressure_sealevel;temperature;humidity
77090;BME280;66028;53.558;9.950;2024-02-16T00:00:25;100983.44;;;10.80;98.11
77090;BME280;66028;53.558;9.950;2024-02-16T00:02:51;100992.03;;;10.77;98.14
77090;BME280;66028;53.558;9.950;2024-02-16T00:05:16;100983.09;;;10.76;98.00
77090;BME280;66028;53.558;9.950;2024-02-16T00:07:42;100983.91;;;10.77;97.98
77090;BME280;66028;53.558;9.950;2024-02-16T00:10:08;100978.03;;;10.80;97.67
77090;BME280;66028;53.558;9.950;2024-02-16T00:12:35;100976.03;;;10.75;97.86
77090;BME280;66028;53.558;9.950;2024-02-16T00:15:01;100974.88;;;10.71;97.86
77090;BME280;66028;53.558;9.950;2024-02-16T00:17:26;100968.63;;;10.71;97.52
77090;BME280;66028;53.558;9.950;2024-02-16T00:19:55;100972.03;;;10.66;97.63
77090;BME280;66028;53.558;9.950;2024-02-16T00:22:21;100964.72;;;10.67;97.71
77090;BME280;66028;53.558;9.950;2024-02-16T00:24:47;100956.59;;;10.67;97.29
77090;BME280;66028;53.558;9.950;2024-02-16T00:27:13;100947.66;;;10.66;97.40
77090;BME280;66028;53.558;9.950;2024-02-16T00:29:39;100950.94;;;10.68;97.10
77090;BME280;66028;53.558;9.950;2024-02-16T00:32:04;100943.06;;;10.67;97.02
77090;BME280;66028;53.558;9.950;2024-02-16T00:34:31;100948.72;;;10.65;96.86
77090;BME280;66028;53.558;9.950;2024-02-16T00:36:57;100942.69;;;10.63;96.71
77090;BME280;66028;53.558;9.950;2024-02-16T00:39:22;100944.94;;;10.66;96.33
77090;BME280;66028;53.558;9.950;2024-02-16T00:41:48;100941.09;;;10.62;96.57
77090;BME280;66028;53.558;9.950;2024-02-16T00:44:14;100932.38;;;10.60;96.66
77090;BME280;66028;53.558;9.950;2024-02-16T00:46:39;100929.44;;;10.62;96.40
77090;BME280;66028;53.558;9.950;2024-02-16T00:49:06;100934.72;;;10.57;96.64
77090;BME280;66028;53.558;9.950;2024-02-16T00:51:31;100931.78;;;10.58;96.38
77090;BME280;66028;53.558;9.950;2024-02-16T00:53:56;100932.00;;;10.57;96.17
77090;BME280;66028;53.558;9.950;2024-02-16T00:56:22;100936.22;;;10.53;96.43
77090;BME280;66028;53.558;9.950;2024-02-16T00:58:48;100934.56;;;10.52;96.35
77090;BME280;66028;53.558;9.950;2024-02-16T01:01:14;100924.00;;;10.50;96.05
77090;BME280;66028;53.558;9.950;2024-02-16T01:03:39;100935.31;;;10.47;96.28
77090;BME280;66028;53.558;9.950;2024-02-16T01:06:05;100934.13;;;10.43;96.43
77090;BME280;66028;53.558;9.950;2024-02-16T01:08:31;100925.41;;;10.41;96.79
77090;BME280;66028;53.558;9.950;2024-02-16T01:10:56;100924.34;;;10.42;96.14
77090;BME280;66028;53.558;9.950;2024-02-16T01:13:22;100934.25;;;10.36;96.49
77090;BME280;66028;53.558;9.950;2024-02-16T01:15:47;100928.47;;;10.33;96.31
77090;BME280;66028;53.558;9.950;2024-02-16T01:18:12;100932.69;;;10.29;96.43
77090;BME280;66028;53.558;9.950;2024-02-16T01:20:38;100939.16;;;10.28;96.67
77090;BME280;66028;53.558;9.950;2024-02-16T01:23:03;100943.03;;;10.20;97.08
77090;BME280;66028;53.558;9.950;2024-02-16T01:25:30;100940.56;;;10.19;97.24
77090;BME280;66028;53.558;9.950;2024-02-16T01:27:56;100931.81;;;10.17;97.42
77090;BME280;66028;53.558;9.950;2024-02-16T01:30:21;100923.50;;;10.18;97.16
77090;BME280;66028;53.558;9.950;2024-02-16T01:32:47;100921.00;;;10.17;96.96
77090;BME280;66028;53.558;9.950;2024-02-16T01:35:12;100918.28;;;10.17;97.19
77090;BME280;66028;53.558;9.950;2024-02-16T01:37:40;100913.38;;;10.14;97.27
77090;BME280;66028;53.558;9.950;2024-02-16T01:40:08;100912.03;;;10.16;97.12
77090;BME280;66028;53.558;9.950;2024-02-16T01:42:38;100912.44;;;10.20;97.18
77090;BME280;66028;53.558;9.950;2024-02-16T01:45:04;100902.22;;;10.22;96.83
77090;BME280;66028;53.558;9.950;2024-02-16T01:47:29;100906.34;;;10.24;96.76
77090;BME280;66028;53.558;9.950;2024-02-16T01:49:55;100905.38;;;10.30;96.42
77090;BME280;66028;53.558;9.950;2024-02-16T01:52:20;100905.16;;;10.32;96.30
77090;BME280;66028;53.558;9.950;2024-02-16T01:54:45;100909.16;;;10.29;96.10
77090;BME280;66028;53.558;9.950;2024-02-16T01:57:11;100900.94;;;10.24;96.45
77090;BME280;66028;53.558;9.950;2024-02-16T01:59:37;100895.28;;;10.26;96.28
77090;BME280;66028;53.558;9.950;2024-02-16T02:02:05;100886.81;;;10.22;96.74
77090;BME280;66028;53.558;9.950;2024-02-16T02:04:30;100880.34;;;10.23;96.31
77090;BME280;66028;53.558;9.950;2024-02-16T02:06:55;100870.44;;;10.29;96.28
77090;BME280;66028;53.558;9.950;2024-02-16T02:09:20;100874.19;;;10.28;95.86
77090;BME280;66028;53.558;9.950;2024-02-16T02:11:46;100862.81;;;10.26;96.10
77090;BME280;66028;53.558;9.950;2024-02-16T02:14:11;100864.44;;;10.27;95.83
77090;BME280;66028;53.558;9.950;2024-02-16T02:16:36;100865.97;;;10.23;96.37
77090;BME280;66028;53.558;9.950;2024-02-16T02:19:02;100857.63;;;10.24;96.24
77090;BME280;66028;53.558;9.950;2024-02-16T02:21:28;100860.56;;;10.23;96.24
77090;BME280;66028;53.558;9.950;2024-02-16T02:23:53;100854.34;;;10.22;96.12
77090;BME280;66028;53.558;9.950;2024-02-16T02:26:18;100853.28;;;10.23;95.92
77090;BME280;66028;53.558;9.950;2024-02-16T02:28:43;100858.56;;;10.18;96.27
77090;BME280;66028;53.558;9.950;2024-02-16T02:31:09;100861.03;;;10.20;95.89
77090;BME280;66028;53.558;9.950;2024-02-16T02:33:34;100855.16;;;10.23;95.76
77090;BME280;66028;53.558;9.950;2024-02-16T02:35:59;100858.75;;;10.17;96.00
77090;BME280;66028;53.558;9.950;2024-02-16T02:38:24;100851.47;;;10.17;95.86
77090;BME280;66028;53.558;9.950;2024-02-16T02:40:51;100852.53;;;10.16;96.12
77090;BME280;66028;53.558;9.950;2024-02-16T02:43:16;100850.63;;;10.17;96.25
77090;BME280;66028;53.558;9.950;2024-02-16T02:45:43;100851.13;;;10.14;96.11
77090;BME280;66028;53.558;9.950;2024-02-16T02:48:09;100837.00;;;10.11;96.11
77090;BME280;66028;53.558;9.950;2024-02-16T02:50:34;100845.47;;;10.15;96.06
77090;BME280;66028;53.558;9.950;2024-02-16T02:52:59;100832.53;;;10.17;95.70
77090;BME280;66028;53.558;9.950;2024-02-16T02:55:24;100838.66;;;10.13;95.79
77090;BME280;66028;53.558;9.950;2024-02-16T02:57:50;100830.06;;;10.16;95.67
77090;BME280;66028;53.558;9.950;2024-02-16T03:00:15;100828.66;;;10.13;96.01
77090;BME280;66028;53.558;9.950;2024-02-16T03:02:41;100833.16;;;10.19;95.95
77090;BME280;66028;53.558;9.950;2024-02-16T03:05:06;100822.69;;;10.23;95.54
77090;BME280;66028;53.558;9.950;2024-02-16T03:07:33;100822.69;;;10.23;95.67
77090;BME280;66028;53.558;9.950;2024-02-16T03:09:58;100813.28;;;10.25;94.84
77090;BME280;66028;53.558;9.950;2024-02-16T03:12:24;100806.56;;;10.28;94.75
77090;BME280;66028;53.558;9.950;2024-02-16T03:14:49;100801.13;;;10.28;94.91
77090;BME280;66028;53.558;9.950;2024-02-16T03:17:14;100803.03;;;10.27;94.48
77090;BME280;66028;53.558;9.950;2024-02-16T03:19:39;100790.56;;;10.26;94.73
77090;BME280;66028;53.558;9.950;2024-02-16T03:22:05;100783.25;;;10.27;95.05
77090;BME280;66028;53.558;9.950;2024-02-16T03:24:30;100782.47;;;10.26;94.88
77090;BME280;66028;53.558;9.950;2024-02-16T03:26:56;100780.53;;;10.27;94.79
77090;BME280;66028;53.558;9.950;2024-02-16T03:29:21;100783.84;;;10.29;94.71
77090;BME280;66028;53.558;9.950;2024-02-16T03:31:46;100773.53;;;10.26;95.18
77090;BME280;66028;53.558;9.950;2024-02-16T03:34:11;100782.78;;;10.30;94.54
77090;BME280;66028;53.558;9.950;2024-02-16T03:36:37;100780.44;;;10.33;94.02
77090;BME280;66028;53.558;9.950;2024-02-16T03:39:02;100778.44;;;10.29;94.38
77090;BME280;66028;53.558;9.950;2024-02-16T03:41:27;100777.84;;;10.27;94.27
77090;BME280;66028;53.558;9.950;2024-02-16T03:43:53;100774.34;;;10.26;93.98
77090;BME280;66028;53.558;9.950;2024-02-16T03:46:19;100779.03;;;10.31;93.84
77090;BME280;66028;53.558;9.950;2024-02-16T03:48:44;100780.81;;;10.25;94.00
77090;BME280;66028;53.558;9.950;2024-02-16T03:51:10;100787.13;;;10.31;93.55
77090;BME280;66028;53.558;9.950;2024-02-16T03:53:35;100780.44;;;10.33;93.09
77090;BME280;66028;53.558;9.950;2024-02-16T03:56:00;100778.78;;;10.32;93.07
77090;BME280;66028;53.558;9.950;2024-02-16T03:58:26;100777.25;;;10.36;92.91
77090;BME280;66028;53.558;9.950;2024-02-16T04:00:52;100777.38;;;10.30;92.78
77090;BME280;66028;53.558;9.950;2024-02-16T04:03:20;100774.66;;;10.41;91.96
77090;BME280;66028;53.558;9.950;2024-02-16T04:05:45;100776.88;;;10.44;91.69
77090;BME280;66028;53.558;9.950;2024-02-16T04:08:11;100783.59;;;10.42;91.77
77090;BME280;66028;53.558;9.950;2024-02-16T04:10:36;100763.22;;;10.39;91.86
77090;BME280;66028;53.558;9.950;2024-02-16T04:13:02;100769.81;;;10.43;91.68
77090;BME280;66028;53.558;9.950;2024-02-16T04:15:27;100760.75;;;10.50;91.29
77090;BME280;66028;53.558;9.950;2024-02-16T04:17:53;100761.31;;;10.52;91.19
77090;BME280;66028;53.558;9.950;2024-02-16T04:20:19;100760.25;;;10.53;91.00
77090;BME280;66028;53.558;9.950;2024-02-16T04:22:45;100761.59;;;10.50;90.52
77090;BME280;66028;53.558;9.950;2024-02-16T04:25:10;100761.00;;;10.48;90.56
77090;BME280;66028;53.558;9.950;2024-02-16T04:27:36;100761.66;;;10.55;90.74
77090;BME280;66028;53.558;9.950;2024-02-16T04:30:02;100766.63;;;10.58;90.01
77090;BME280;66028;53.558;9.950;2024-02-16T04:32:28;100766.72;;;10.52;90.39
77090;BME280;66028;53.558;9.950;2024-02-16T04:34:53;100766.88;;;10.45;90.88
77090;BME280;66028;53.558;9.950;2024-02-16T04:37:21;100754.25;;;10.51;90.67
77090;BME280;66028;53.558;9.950;2024-02-16T04:39:46;100763.19;;;10.51;90.39
77090;BME280;66028;53.558;9.950;2024-02-16T04:42:11;100761.00;;;10.48;90.68
77090;BME280;66028;53.558;9.950;2024-02-16T04:44:37;100757.69;;;10.46;90.76
77090;BME280;66028;53.558;9.950;2024-02-16T04:47:05;100759.81;;;10.44;90.53
77090;BME280;66028;53.558;9.950;2024-02-16T04:49:31;100764.84;;;10.52;90.54
77090;BME280;66028;53.558;9.950;2024-02-16T04:51:57;100764.19;;;10.45;90.73
77090;BME280;66028;53.558;9.950;2024-02-16T04:54:23;100760.41;;;10.46;90.42
77090;BME280;66028;53.558;9.950;2024-02-16T04:56:48;100755.00;;;10.46;90.20
77090;BME280;66028;53.558;9.950;2024-02-16T04:59:15;100760.16;;;10.48;90.23
77090;BME280;66028;53.558;9.950;2024-02-16T05:01:40;100748.31;;;10.37;91.17
77090;BME280;66028;53.558;9.950;2024-02-16T05:04:05;100748.63;;;10.40;90.72
77090;BME280;66028;53.558;9.950;2024-02-16T05:06:31;100753.22;;;10.40;90.72
77090;BME280;66028;53.558;9.950;2024-02-16T05:08:57;100750.66;;;10.33;90.98
77090;BME280;66028;53.558;9.950;2024-02-16T05:11:22;100750.78;;;10.38;90.87
77090;BME280;66028;53.558;9.950;2024-02-16T05:13:50;100753.00;;;10.41;90.76
77090;BME280;66028;53.558;9.950;2024-02-16T05:16:15;100749.84;;;10.33;90.93
77090;BME280;66028;53.558;9.950;2024-02-16T05:18:40;100751.25;;;10.35;90.73
77090;BME280;66028;53.558;9.950;2024-02-16T05:21:06;100751.84;;;10.37;90.57
77090;BME280;66028;53.558;9.950;2024-02-16T05:23:31;100755.25;;;10.33;90.61
77090;BME280;66028;53.558;9.950;2024-02-16T05:25:56;100745.13;;;10.28;91.33
77090;BME280;66028;53.558;9.950;2024-02-16T05:28:21;100739.00;;;10.33;91.10
77090;BME280;66028;53.558;9.950;2024-02-16T05:30:47;100736.53;;;10.31;90.77
77090;BME280;66028;53.558;9.950;2024-02-16T05:33:12;100731.72;;;10.33;90.88
77090;BME280;66028;53.558;9.950;2024-02-16T05:35:39;100734.31;;;10.28;90.89
77090;BME280;66028;53.558;9.950;2024-02-16T05:38:06;100729.88;;;10.22;91.12
77090;BME280;66028;53.558;9.950;2024-02-16T05:40:46;100726.69;;;10.25;90.95
77090;BME280;66028;53.558;9.950;2024-02-16T05:43:19;100733.47;;;10.28;90.82
77090;BME280;66028;53.558;9.950;2024-02-16T05:45:45;100732.09;;;10.25;91.01
77090;BME280;66028;53.558;9.950;2024-02-16T05:48:11;100727.41;;;10.21;90.84
77090;BME280;66028;53.558;9.950;2024-02-16T05:50:37;100727.41;;;10.21;90.72
77090;BME280;66028;53.558;9.950;2024-02-16T05:53:02;100737.41;;;10.20;91.04
77090;BME280;66028;53.558;9.950;2024-02-16T05:55:27;100740.34;;;10.19;91.03
77090;BME280;66028;53.558;9.950;2024-02-16T05:57:53;100742.81;;;10.20;90.83
77090;BME280;66028;53.558;9.950;2024-02-16T06:00:18;100744.22;;;10.23;91.14
77090;BME280;66028;53.558;9.950;2024-02-16T06:02:46;100755.50;;;10.20;91.21
77090;BME280;66028;53.558;9.950;2024-02-16T06:05:12;100740.47;;;10.24;90.58
77090;BME280;66028;53.558;9.950;2024-02-16T06:07:37;100739.28;;;10.20;90.97
77090;BME280;66028;53.558;9.950;2024-02-16T06:10:03;100734.53;;;10.15;91.06
77090;BME280;66028;53.558;9.950;2024-02-16T06:12:30;100737.41;;;10.20;90.81
77090;BME280;66028;53.558;9.950;2024-02-16T06:14:56;100737.50;;;10.14;90.65
77090;BME280;66028;53.558;9.950;2024-02-16T06:17:22;100744.78;;;10.13;90.44
77090;BME280;66028;53.558;9.950;2024-02-16T06:19:47;100739.50;;;10.06;91.08
77090;BME280;66028;53.558;9.950;2024-02-16T06:22:13;100736.56;;;10.08;90.79
77090;BME280;66028;53.558;9.950;2024-02-16T06:24:39;100730.78;;;10.04;90.88
77090;BME280;66028;53.558;9.950;2024-02-16T06:27:05;100734.56;;;10.03;90.78
77090;BME280;66028;53.558;9.950;2024-02-16T06:29:30;100734.22;;;10.00;91.02
77090;BME280;66028;53.558;9.950;2024-02-16T06:31:56;100731.75;;;9.98;90.79
77090;BME280;66028;53.558;9.950;2024-02-16T06:34:21;100731.53;;;9.88;91.39
77090;BME280;66028;53.558;9.950;2024-02-16T06:36:47;100740.19;;;9.90;91.26
77090;BME280;66028;53.558;9.950;2024-02-16T06:39:12;100746.69;;;9.89;91.25
77090;BME280;66028;53.558;9.950;2024-02-16T06:41:44;100744.22;;;9.88;91.29
77090;BME280;66028;53.558;9.950;2024-02-16T06:44:10;100744.69;;;9.85;91.33
77090;BME280;66028;53.558;9.950;2024-02-16T06:46:35;100750.09;;;9.96;90.73
77090;BME280;66028;53.558;9.950;2024-02-16T06:49:01;100744.91;;;9.95;90.36
77090;BME280;66028;53.558;9.950;2024-02-16T06:51:26;100741.03;;;9.91;90.68
77090;BME280;66028;53.558;9.950;2024-02-16T06:53:53;100752.66;;;9.91;90.61
77090;BME280;66028;53.558;9.950;2024-02-16T06:56:19;100749.13;;;9.91;90.45
77090;BME280;66028;53.558;9.950;2024-02-16T06:58:45;100741.84;;;9.91;90.12
77090;BME280;66028;53.558;9.950;2024-02-16T07:01:10;100737.16;;;9.98;89.83
77090;BME280;66028;53.558;9.950;2024-02-16T07:03:36;100738.69;;;9.94;89.79
77090;BME280;66028;53.558;9.950;2024-02-16T07:06:03;100737.03;;;9.93;89.72
77090;BME280;66028;53.558;9.950;2024-02-16T07:08:28;100761.13;;;10.06;88.73
77090;BME280;66028;53.558;9.950;2024-02-16T07:10:53;100747.63;;;10.06;88.81
77090;BME280;66028;53.558;9.950;2024-02-16T07:13:19;100757.50;;;10.01;88.86
77090;BME280;66028;53.558;9.950;2024-02-16T07:15:44;100753.63;;;10.08;88.36
77090;BME280;66028;53.558;9.950;2024-02-16T07:18:11;100758.31;;;10.13;88.09
77090;BME280;66028;53.558;9.950;2024-02-16T07:20:38;100759.72;;;10.27;86.81
77090;BME280;66028;53.558;9.950;2024-02-16T07:23:03;100763.25;;;10.28;87.03
77090;BME280;66028;53.558;9.950;2024-02-16T07:25:28;100762.19;;;10.29;87.07
77090;BME280;66028;53.558;9.950;2024-02-16T07:27:54;100764.78;;;10.35;86.59
77090;BME280;66028;53.558;9.950;2024-02-16T07:30:19;100764.31;;;10.38;86.46
77090;BME280;66028;53.558;9.950;2024-02-16T07:32:48;100764.63;;;10.42;86.46
77090;BME280;66028;53.558;9.950;2024-02-16T07:35:15;100766.25;;;10.55;85.56
77090;BME280;66028;53.558;9.950;2024-02-16T07:37:40;100756.13;;;10.62;85.01
77090;BME280;66028;53.558;9.950;2024-02-16T07:40:07;100750.91;;;10.72;85.00
77090;BME280;66028;53.558;9.950;2024-02-16T07:42:37;100750.53;;;10.80;84.57
77090;BME280;66028;53.558;9.950;2024-02-16T07:45:03;100758.66;;;10.80;84.10
77090;BME280;66028;53.558;9.950;2024-02-16T07:47:31;100767.72;;;10.86;84.03
77090;BME280;66028;53.558;9.950;2024-02-16T07:49:56;100772.31;;;10.85;83.36
77090;BME280;66028;53.558;9.950;2024-02-16T07:52:22;100777.81;;;10.90;83.46
77090;BME280;66028;53.558;9.950;2024-02-16T07:54:47;100765.66;;;10.93;83.21
77090;BME280;66028;53.558;9.950;2024-02-16T07:57:13;100773.44;;;10.89;83.73
77090;BME280;66028;53.558;9.950;2024-02-16T07:59:38;100779.31;;;10.98;83.07
77090;BME280;66028;53.558;9.950;2024-02-16T08:02:05;100767.41;;;10.99;83.36
77090;BME280;66028;53.558;9.950;2024-02-16T08:04:32;100773.78;;;11.21;82.28
77090;BME280;66028;53.558;9.950;2024-02-16T08:06:57;100767.53;;;11.37;80.89
77090;BME280;66028;53.558;9.950;2024-02-16T08:09:22;100762.72;;;11.56;80.88
77090;BME280;66028;53.558;9.950;2024-02-16T08:11:48;100760.56;;;11.75;79.17
77090;BME280;66028;53.558;9.950;2024-02-16T08:14:13;100759.09;;;11.67;80.10
77090;BME280;66028;53.558;9.950;2024-02-16T08:16:38;100753.44;;;11.69;80.10
77090;BME280;66028;53.558;9.950;2024-02-16T08:19:03;100751.06;;;11.55;80.02
77090;BME280;66028;53.558;9.950;2024-02-16T08:21:29;100752.78;;;11.62;80.21
77090;BME280;66028;53.558;9.950;2024-02-16T08:23:54;100747.94;;;11.64;79.71
77090;BME280;66028;53.558;9.950;2024-02-16T08:26:19;100740.22;;;11.55;79.26
77090;BME280;66028;53.558;9.950;2024-02-16T08:28:44;100736.81;;;11.48;80.44
77090;BME280;66028;53.558;9.950;2024-02-16T08:31:15;100734.06;;;11.43;81.55
77090;BME280;66028;53.558;9.950;2024-02-16T08:33:42;100734.84;;;11.27;81.96
77090;BME280;66028;53.558;9.950;2024-02-16T08:36:08;100745.53;;;11.17;82.42
77090;BME280;66028;53.558;9.950;2024-02-16T08:38:33;100741.41;;;11.14;82.51
77090;BME280;66028;53.558;9.950;2024-02-16T08:40:58;100749.78;;;11.13;82.19
77090;BME280;66028;53.558;9.950;2024-02-16T08:43:25;100745.25;;;11.02;82.75
77090;BME280;66028;53.558;9.950;2024-02-16T08:45:51;100741.66;;;11.13;83.01
77090;BME280;66028;53.558;9.950;2024-02-16T08:48:16;100743.72;;;11.23;82.36
77090;BME280;66028;53.558;9.950;2024-02-16T08:50:41;100743.88;;;11.16;82.49
77090;BME280;66028;53.558;9.950;2024-02-16T08:53:06;100745.75;;;11.15;82.97
77090;BME280;66028;53.558;9.950;2024-02-16T08:55:33;100736.56;;;11.16;82.39
77090;BME280;66028;53.558;9.950;2024-02-16T08:57:58;100737.81;;;11.26;81.90
77090;BME280;66028;53.558;9.950;2024-02-16T09:00:23;100733.97;;;11.22;82.36
77090;BME280;66028;53.558;9.950;2024-02-16T09:02:52;100740.28;;;11.27;82.50
77090;BME280;66028;53.558;9.950;2024-02-16T09:05:17;100735.84;;;11.38;81.92
77090;BME280;66028;53.558;9.950;2024-02-16T09:07:42;100732.16;;;11.44;81.27
77090;BME280;66028;53.558;9.950;2024-02-16T09:10:08;100741.13;;;11.44;80.96
77090;BME280;66028;53.558;9.950;2024-02-16T09:12:33;100741.13;;;11.44;82.04
77090;BME280;66028;53.558;9.950;2024-02-16T09:14:58;100732.75;;;11.46;81.70
77090;BME280;66028;53.558;9.950;2024-02-16T09:17:24;100741.94;;;11.45;82.06
77090;BME280;66028;53.558;9.950;2024-02-16T09:19:49;100736.75;;;11.43;81.35
77090;BME280;66028;53.558;9.950;2024-02-16T09:22:14;100735.94;;;11.43;81.97
77090;BME280;66028;53.558;9.950;2024-02-16T09:24:39;100736.81;;;11.48;81.60
77090;BME280;66028;53.558;9.950;2024-02-16T09:27:05;100735.19;;;11.47;81.32
77090;BME280;66028;53.558;9.950;2024-02-16T09:29:31;100733.56;;;11.46;81.61
77090;BME280;66028;53.558;9.950;2024-02-16T09:31:58;100725.91;;;11.43;81.87
77090;BME280;66028;53.558;9.950;2024-02-16T09:34:23;100728.31;;;11.57;81.20
77090;BME280;66028;53.558;9.950;2024-02-16T09:36:48;100733.72;;;11.57;81.67
77090;BME280;66028;53.558;9.950;2024-02-16T09:39:14;100740.28;;;11.61;81.30
77090;BME280;66028;53.558;9.950;2024-02-16T09:41:42;100747.28;;;11.57;81.24
77090;BME280;66028;53.558;9.950;2024-02-16T09:44:08;100742.00;;;11.67;81.31
77090;BME280;66028;53.558;9.950;2024-02-16T09:46:35;100747.44;;;11.67;80.72
77090;BME280;66028;53.558;9.950;2024-02-16T09:49:01;100752.28;;;11.65;81.31
77090;BME280;66028;53.558;9.950;2024-02-16T09:51:28;100746.44;;;11.73;80.16
77090;BME280;66028;53.558;9.950;2024-02-16T09:53:54;100748.69;;;11.76;80.37
77090;BME280;66028;53.558;9.950;2024-02-16T09:56:22;100751.56;;;11.86;80.53
77090;BME280;66028;53.558;9.950;2024-02-16T09:58:49;100742.31;;;12.04;80.27
77090;BME280;66028;53.558;9.950;2024-02-16T10:01:17;100751.91;;;12.11;79.24
77090;BME280;66028;53.558;9.950;2024-02-16T10:03:44;100746.13;;;12.24;78.98
77090;BME280;66028;53.558;9.950;2024-02-16T10:06:10;100741.59;;;12.30;78.42
77090;BME280;66028;53.558;9.950;2024-02-16T10:08:53;100745.06;;;12.25;78.93
77090;BME280;66028;53.558;9.950;2024-02-16T10:11:24;100752.09;;;12.43;78.63
77090;BME280;66028;53.558;9.950;2024-02-16T10:14:00;100749.50;;;12.53;77.28
77090;BME280;66028;53.558;9.950;2024-02-16T10:16:26;100754.22;;;12.63;77.68
77090;BME280;66028;53.558;9.950;2024-02-16T10:18:55;100747.25;;;12.72;77.61
77090;BME280;66028;53.558;9.950;2024-02-16T10:21:26;100751.22;;;12.86;76.75
77090;BME280;66028;53.558;9.950;2024-02-16T10:24:04;100750.88;;;13.05;76.60
77090;BME280;66028;53.558;9.950;2024-02-16T10:26:31;100758.00;;;13.11;75.68
77090;BME280;66028;53.558;9.950;2024-02-16T10:28:57;100760.91;;;13.26;75.64
77090;BME280;66028;53.558;9.950;2024-02-16T10:31:24;100755.09;;;13.44;75.03
77090;BME280;66028;53.558;9.950;2024-02-16T10:34:05;100761.94;;;13.20;75.50
77090;BME280;66028;53.558;9.950;2024-02-16T10:36:36;100762.91;;;13.36;74.61
77090;BME280;66028;53.558;9.950;2024-02-16T10:39:03;100763.81;;;13.19;75.62
77090;BME280;66028;53.558;9.950;2024-02-16T10:41:34;100762.25;;;13.23;74.94
77090;BME280;66028;53.558;9.950;2024-02-16T10:44:03;100756.38;;;13.37;73.71
77090;BME280;66028;53.558;9.950;2024-02-16T10:46:29;100758.94;;;13.48;72.89
77090;BME280;66028;53.558;9.950;2024-02-16T10:48:54;100754.72;;;13.67;71.46
77090;BME280;66028;53.558;9.950;2024-02-16T10:51:24;100771.03;;;13.99;69.96
77090;BME280;66028;53.558;9.950;2024-02-16T10:53:52;100767.56;;;14.14;68.49
77090;BME280;66028;53.558;9.950;2024-02-16T10:56:35;100752.84;;;14.10;68.92
77090;BME280;66028;53.558;9.950;2024-02-16T10:59:05;100758.09;;;14.22;68.28
77090;BME280;66028;53.558;9.950;2024-02-16T11:01:40;100758.38;;;14.25;68.06
77090;BME280;66028;53.558;9.950;2024-02-16T11:04:08;100746.16;;;14.33;67.80
77090;BME280;66028;53.558;9.950;2024-02-16T11:06:53;100747.34;;;14.47;67.11
77090;BME280;66028;53.558;9.950;2024-02-16T11:09:29;100756.84;;;14.39;67.36
77090;BME280;66028;53.558;9.950;2024-02-16T11:11:59;100743.22;;;14.39;67.53
77090;BME280;66028;53.558;9.950;2024-02-16T11:14:42;100744.63;;;14.47;67.37
77090;BME280;66028;53.558;9.950;2024-02-16T11:17:12;100749.25;;;14.52;67.49
77090;BME280;66028;53.558;9.950;2024-02-16T11:19:42;100743.00;;;14.46;67.66
77090;BME280;66028;53.558;9.950;2024-02-16T11:22:08;100739.72;;;14.49;67.59
77090;BME280;66028;53.558;9.950;2024-02-16T11:24:42;100733.38;;;14.38;68.23
77090;BME280;66028;53.558;9.950;2024-02-16T11:27:10;100740.00;;;14.53;68.02
77090;BME280;66028;53.558;9.950;2024-02-16T11:29:36;100729.41;;;14.56;68.10
77090;BME280;66028;53.558;9.950;2024-02-16T11:32:05;100743.28;;;14.55;67.92
77090;BME280;66028;53.558;9.950;2024-02-16T11:34:31;100735.09;;;14.45;67.70
77090;BME280;66028;53.558;9.950;2024-02-16T11:36:58;100738.00;;;14.38;68.27
77090;BME280;66028;53.558;9.950;2024-02-16T11:39:24;100744.25;;;14.33;68.67
77090;BME280;66028;53.558;9.950;2024-02-16T11:42:04;100743.50;;;14.43;68.45
77090;BME280;66028;53.558;9.950;2024-02-16T11:44:31;100739.91;;;14.37;69.10
77090;BME280;66028;53.558;9.950;2024-02-16T11:47:01;100749.97;;;14.37;68.63
77090;BME280;66028;53.558;9.950;2024-02-16T11:49:29;100749.97;;;14.32;69.16
77090;BME280;66028;53.558;9.950;2024-02-16T11:51:55;100725.81;;;14.46;68.83
77090;BME280;66028;53.558;9.950;2024-02-16T11:54:20;100746.53;;;14.52;68.61
77090;BME280;66028;53.558;9.950;2024-02-16T11:56:47;100743.88;;;14.67;67.87
77090;BME280;66028;53.558;9.950;2024-02-16T11:59:15;100750.75;;;14.80;67.64
77090;BME280;66028;53.558;9.950;2024-02-16T12:01:57;100748.31;;;14.88;67.75
77090;BME280;66028;53.558;9.950;2024-02-16T12:04:27;100744.75;;;14.83;67.26
77090;BME280;66028;53.558;9.950;2024-02-16T12:09:20;100744.75;;;14.88;67.75
77090;BME280;66028;53.558;9.950;2024-02-16T12:11:48;100745.56;;;14.88;67.59
77090;BME280;66028;53.558;9.950;2024-02-16T12:14:15;100750.19;;;14.88;68.06
77090;BME280;66028;53.558;9.950;2024-02-16T12:16:41;100740.97;;;14.94;67.86
77090;BME280;66028;53.558;9.950;2024-02-16T12:19:06;100734.16;;;14.96;67.44
77090;BME280;66028;53.558;9.950;2024-02-16T12:21:32;100744.78;;;14.93;67.75
77090;BME280;66028;53.558;9.950;2024-02-16T12:23:57;100754.09;;;15.07;67.34
77090;BME280;66028;53.558;9.950;2024-02-16T12:26:22;100753.53;;;15.05;67.69
77090;BME280;66028;53.558;9.950;2024-02-16T12:28:48;100745.91;;;15.12;67.19
77090;BME280;66028;53.558;9.950;2024-02-16T12:31:23;100748.91;;;15.16;67.54
77090;BME280;66028;53.558;9.950;2024-02-16T12:33:49;100761.94;;;14.98;67.82
77090;BME280;66028;53.558;9.950;2024-02-16T12:36:14;100752.41;;;15.01;67.81
77090;BME280;66028;53.558;9.950;2024-02-16T12:38:42;100754.91;;;15.07;67.88
77090;BME280;66028;53.558;9.950;2024-02-16T12:41:07;100752.13;;;14.97;67.85
77090;BME280;66028;53.558;9.950;2024-02-16T12:43:34;100760.84;;;14.89;68.24
77090;BME280;66028;53.558;9.950;2024-02-16T12:45:59;100762.69;;;14.73;69.22
77090;BME280;66028;53.558;9.950;2024-02-16T12:48:29;100758.94;;;14.90;68.96